createdAt,value
2022-07-27T00:01:05.997Z,1.57
2022-07-27T00:03:34.016Z,1.23
2022-07-27T00:06:03.331Z,1.43
2022-07-27T00:08:31.200Z,1.50
2022-07-27T00:10:59.183Z,1.60
2022-07-27T00:13:27.427Z,1.50
2022-07-27T00:15:55.428Z,1.77
2022-07-27T00:18:23.777Z,2.10
2022-07-27T00:20:51.772Z,1.50
2022-07-27T00:23:21.283Z,1.63
2022-07-27T00:25:49.174Z,1.60
2022-07-27T00:28:17.181Z,1.57
2022-07-27T00:30:45.169Z,1.80
2022-07-27T00:33:17.196Z,2.33
2022-07-27T00:35:45.961Z,1.93
2022-07-27T00:38:14.045Z,1.80
2022-07-27T00:40:43.656Z,1.70
2022-07-27T00:43:11.605Z,1.67
2022-07-27T00:45:39.552Z,2.00
2022-07-27T00:48:07.574Z,1.40
2022-07-27T00:50:36.233Z,1.83
2022-07-27T00:53:06.009Z,1.83
2022-07-27T00:55:34.308Z,1.90
2022-07-27T00:58:05.816Z,1.77
2022-07-27T01:00:33.801Z,1.77
2022-07-27T01:03:05.696Z,1.70
2022-07-27T01:05:43.086Z,1.70
2022-07-27T01:08:13.857Z,2.00
2022-07-27T01:10:44.182Z,1.80
2022-07-27T01:13:13.983Z,1.53
2022-07-27T01:15:43.749Z,1.83
2022-07-27T01:18:13.723Z,2.00
2022-07-27T01:20:42.945Z,1.97
2022-07-27T01:23:12.241Z,1.70
2022-07-27T01:25:42.615Z,2.17
2022-07-27T01:28:10.590Z,1.70
2022-07-27T01:30:38.632Z,1.60
2022-07-27T01:33:08.472Z,1.73
2022-07-27T01:35:37.848Z,1.90
2022-07-27T01:38:06.367Z,1.67
2022-07-27T01:40:36.863Z,1.80
2022-07-27T01:43:05.120Z,1.93
2022-07-27T01:45:33.120Z,1.90
2022-07-27T01:48:01.122Z,2.20
2022-07-27T01:50:29.331Z,2.17
2022-07-27T01:52:57.250Z,2.10
2022-07-27T01:55:25.203Z,1.70
2022-07-27T01:57:54.504Z,2.20
2022-07-27T02:00:22.507Z,1.90
2022-07-27T02:02:50.531Z,2.20
2022-07-27T02:05:18.522Z,2.33
2022-07-27T02:07:46.577Z,2.10
2022-07-27T02:10:14.663Z,1.90
2022-07-27T02:12:41.580Z,2.23
2022-07-27T02:15:14.964Z,2.10
2022-07-27T02:17:45.017Z,2.00
2022-07-27T02:20:14.864Z,2.17
2022-07-27T02:22:43.024Z,2.07
2022-07-27T02:25:13.380Z,1.90
2022-07-27T02:27:43.673Z,2.33
2022-07-27T02:30:14.949Z,2.20
2022-07-27T02:32:46.025Z,2.40
2022-07-27T02:35:18.961Z,2.13
2022-07-27T02:37:48.207Z,2.40
2022-07-27T02:40:18.020Z,2.23
2022-07-27T02:42:46.556Z,2.13
2022-07-27T02:45:17.006Z,2.10
2022-07-27T02:47:45.730Z,2.20
2022-07-27T02:50:13.858Z,2.23
2022-07-27T02:52:41.970Z,2.00
2022-07-27T02:55:10.957Z,2.13
2022-07-27T02:57:41.306Z,2.40
2022-07-27T03:00:12.505Z,2.50
2022-07-27T03:02:42.052Z,2.20
2022-07-27T03:05:11.776Z,2.20
2022-07-27T03:07:39.904Z,2.50
2022-07-27T03:10:08.757Z,2.30
2022-07-27T03:12:36.668Z,2.60
2022-07-27T03:15:05.394Z,2.40
2022-07-27T03:17:33.934Z,2.50
2022-07-27T03:20:03.347Z,2.87
2022-07-27T03:22:32.636Z,2.83
2022-07-27T03:25:01.293Z,2.53
2022-07-27T03:27:29.821Z,2.87
2022-07-27T03:29:58.405Z,2.40
2022-07-27T03:32:26.481Z,2.93
2022-07-27T03:34:54.480Z,2.80
2022-07-27T03:37:23.730Z,2.50
2022-07-27T03:39:51.641Z,2.93
2022-07-27T03:42:19.593Z,2.80
2022-07-27T03:44:47.508Z,3.07
2022-07-27T03:47:15.503Z,2.70
2022-07-27T03:49:43.449Z,3.13
2022-07-27T03:52:17.223Z,2.87
2022-07-27T03:54:47.428Z,3.10
2022-07-27T03:57:15.923Z,3.10
2022-07-27T03:59:43.903Z,3.27
2022-07-27T04:02:12.019Z,2.73
2022-07-27T04:04:39.942Z,3.03
2022-07-27T04:07:08.551Z,3.13
2022-07-27T04:09:37.656Z,3.37
2022-07-27T04:12:09.232Z,3.00
2022-07-27T04:14:37.237Z,3.83
2022-07-27T04:17:05.693Z,3.10
2022-07-27T04:19:33.830Z,3.67
2022-07-27T04:22:01.714Z,3.40
2022-07-27T04:24:29.695Z,3.77
2022-07-27T04:26:57.561Z,3.00
2022-07-27T04:29:27.002Z,3.53
2022-07-27T04:31:54.981Z,3.40
2022-07-27T04:34:22.882Z,3.60
2022-07-27T04:36:51.402Z,3.60
2022-07-27T04:39:19.462Z,3.23
2022-07-27T04:41:47.401Z,3.60
2022-07-27T04:44:15.367Z,3.57
2022-07-27T04:46:44.722Z,3.77
2022-07-27T04:49:13.078Z,3.40
2022-07-27T04:51:43.932Z,3.73
2022-07-27T04:54:12.322Z,4.10
2022-07-27T04:56:40.602Z,3.60
2022-07-27T04:59:08.771Z,3.23
2022-07-27T05:01:37.005Z,3.30
2022-07-27T05:04:06.618Z,3.67
2022-07-27T05:06:34.617Z,3.47
2022-07-27T05:09:02.550Z,3.27
2022-07-27T05:11:30.584Z,3.53
2022-07-27T05:13:58.660Z,3.57
2022-07-27T05:16:29.119Z,3.53
2022-07-27T05:18:57.592Z,3.70
2022-07-27T05:21:29.226Z,3.40
2022-07-27T05:23:57.183Z,3.90
2022-07-27T05:26:25.119Z,3.73
2022-07-27T05:28:53.251Z,3.73
2022-07-27T05:31:21.303Z,3.20
2022-07-27T05:33:54.634Z,3.60
2022-07-27T05:36:27.282Z,3.20
2022-07-27T05:38:55.256Z,3.63
2022-07-27T05:41:24.838Z,3.50
2022-07-27T05:43:56.694Z,3.40
2022-07-27T05:46:27.349Z,3.90
2022-07-27T05:48:57.717Z,3.40
2022-07-27T05:51:27.171Z,4.10
2022-07-27T05:53:55.123Z,3.50
2022-07-27T05:56:23.408Z,3.80
2022-07-27T05:58:51.340Z,3.70
2022-07-27T06:01:19.290Z,3.57
2022-07-27T06:03:47.280Z,3.20
2022-07-27T06:06:33.386Z,3.20
2022-07-27T06:09:05.093Z,3.30
2022-07-27T06:11:33.021Z,3.30
2022-07-27T06:14:00.915Z,3.43
2022-07-27T06:16:29.315Z,3.50
2022-07-27T06:18:57.289Z,3.33
2022-07-27T06:21:26.512Z,3.17
2022-07-27T06:23:55.079Z,3.47
2022-07-27T06:26:24.478Z,3.27
2022-07-27T06:28:58.575Z,3.57
2022-07-27T06:31:28.367Z,3.43
2022-07-27T06:34:03.769Z,3.23
2022-07-27T06:36:32.585Z,3.40
2022-07-27T06:39:00.647Z,3.27
2022-07-27T06:41:30.269Z,2.90
2022-07-27T06:43:58.208Z,3.53
2022-07-27T06:46:26.213Z,3.67
2022-07-27T06:48:56.725Z,3.93
2022-07-27T06:51:25.107Z,3.40
2022-07-27T06:53:54.429Z,3.70
2022-07-27T06:56:23.109Z,3.70
2022-07-27T06:58:52.802Z,3.70
2022-07-27T07:01:20.741Z,3.73
2022-07-27T07:03:48.790Z,4.00
2022-07-27T07:06:16.886Z,3.43
2022-07-27T07:08:44.821Z,3.67
2022-07-27T07:11:14.072Z,3.40
2022-07-27T07:13:44.903Z,3.37
2022-07-27T07:16:15.187Z,3.97
2022-07-27T07:18:43.256Z,4.00
2022-07-27T07:21:11.224Z,3.47
2022-07-27T07:23:39.152Z,3.63
2022-07-27T07:26:07.088Z,3.40
2022-07-27T07:28:36.257Z,3.53
2022-07-27T07:31:04.357Z,3.17
2022-07-27T07:33:33.736Z,3.80
2022-07-27T07:36:13.912Z,3.60
2022-07-27T07:38:42.844Z,3.30
2022-07-27T07:41:10.928Z,3.57
2022-07-27T07:43:39.804Z,3.60
2022-07-27T07:46:08.678Z,3.00
2022-07-27T07:48:39.570Z,3.23
2022-07-27T07:51:07.621Z,3.80
2022-07-27T07:53:39.301Z,3.93
2022-07-27T07:56:10.217Z,3.40
2022-07-27T07:58:38.505Z,3.77
2022-07-27T08:01:06.564Z,3.47
2022-07-27T08:03:34.571Z,3.00
2022-07-27T08:06:03.914Z,3.33
2022-07-27T08:08:31.845Z,3.37
2022-07-27T08:10:59.749Z,3.37
2022-07-27T08:13:27.758Z,3.80
2022-07-27T08:15:55.993Z,2.80
2022-07-27T08:18:23.909Z,3.77
2022-07-27T08:20:51.868Z,3.20
2022-07-27T08:23:21.234Z,3.47
2022-07-27T08:25:49.177Z,3.53
2022-07-27T08:28:17.099Z,3.30
2022-07-27T08:30:46.521Z,3.80
2022-07-27T08:33:14.500Z,3.17
2022-07-27T08:35:42.553Z,3.40
2022-07-27T08:38:10.911Z,3.50
2022-07-27T08:40:45.168Z,3.30
2022-07-27T08:43:23.690Z,3.60
2022-07-27T08:45:54.781Z,3.47
2022-07-27T08:48:23.866Z,3.83
2022-07-27T08:50:52.237Z,3.70
2022-07-27T08:53:20.731Z,4.07
2022-07-27T08:55:50.431Z,3.50
2022-07-27T08:58:18.598Z,3.17
2022-07-27T09:00:48.101Z,3.63
2022-07-27T09:03:20.294Z,3.43
2022-07-27T09:05:51.377Z,3.43
2022-07-27T09:08:24.148Z,3.30
2022-07-27T09:10:55.650Z,3.40
2022-07-27T09:13:26.797Z,3.53
2022-07-27T09:18:44.693Z,3.60
2022-07-27T09:21:16.193Z,3.47
2022-07-27T09:23:47.801Z,3.43
2022-07-27T09:26:35.834Z,3.50
2022-07-27T09:29:06.186Z,3.60
2022-07-27T09:31:41.763Z,4.27
2022-07-27T09:34:10.387Z,3.73
2022-07-27T09:36:51.501Z,3.47
2022-07-27T09:39:20.535Z,4.20
2022-07-27T09:41:52.471Z,4.07
2022-07-27T09:44:43.650Z,3.73
2022-07-27T09:47:26.478Z,4.00
2022-07-27T09:49:57.819Z,3.53
2022-07-27T09:52:27.738Z,4.00
2022-07-27T09:54:56.685Z,3.83
2022-07-27T09:57:26.179Z,3.47
2022-07-27T10:00:13.716Z,3.67
2022-07-27T10:02:43.420Z,3.57
2022-07-27T10:05:11.870Z,3.70
2022-07-27T10:07:40.918Z,3.67
2022-07-27T10:10:09.748Z,3.73
2022-07-27T10:12:39.108Z,3.50
2022-07-27T10:15:08.424Z,3.67
2022-07-27T10:17:38.078Z,3.20
2022-07-27T10:20:09.739Z,3.43
2022-07-27T10:23:01.603Z,4.00
2022-07-27T10:25:36.484Z,2.83
2022-07-27T10:28:13.379Z,3.40
2022-07-27T10:30:41.567Z,3.20
2022-07-27T10:33:17.378Z,3.70
2022-07-27T10:35:45.536Z,3.30
2022-07-27T10:38:18.264Z,3.27
2022-07-27T10:40:47.318Z,3.60
2022-07-27T10:43:21.696Z,2.80
2022-07-27T10:46:01.793Z,3.10
2022-07-27T10:48:43.002Z,2.50
2022-07-27T10:51:17.554Z,3.20
2022-07-27T10:54:22.724Z,2.40
2022-07-27T10:56:46.185Z,2.40
2022-07-27T10:59:16.099Z,2.70
2022-07-27T11:01:57.727Z,2.87
2022-07-27T11:04:25.993Z,2.73
2022-07-27T11:07:24.154Z,2.37
2022-07-27T11:12:37.212Z,2.50
2022-07-27T11:15:08.590Z,2.50
2022-07-27T11:20:27.673Z,2.80
2022-07-27T11:23:50.052Z,2.40
2022-07-27T11:25:58.607Z,2.40
2022-07-27T11:28:30.320Z,2.90
2022-07-27T11:31:03.370Z,2.27
2022-07-27T11:33:32.183Z,2.47
2022-07-27T11:36:01.575Z,2.10
2022-07-27T11:38:30.152Z,2.20
2022-07-27T11:41:12.690Z,2.00
2022-07-27T11:43:46.072Z,2.33
2022-07-27T11:46:19.399Z,2.10
2022-07-27T11:49:09.224Z,2.17
2022-07-27T11:51:39.753Z,1.93
2022-07-27T11:54:09.553Z,2.20
2022-07-27T11:56:39.440Z,2.17
2022-07-27T11:59:18.407Z,2.40
2022-07-27T12:01:51.545Z,1.93
2022-07-27T12:04:25.331Z,1.83
2022-07-27T12:07:04.894Z,1.83
2022-07-27T12:09:38.140Z,1.93
2022-07-27T12:12:15.146Z,1.87
2022-07-27T12:14:46.735Z,2.03
2022-07-27T12:17:22.022Z,1.50
2022-07-27T12:19:55.036Z,1.67
2022-07-27T12:22:32.233Z,2.00
2022-07-27T12:25:01.883Z,1.83
2022-07-27T12:27:30.567Z,2.00
2022-07-27T12:30:16.691Z,1.93
2022-07-27T12:32:46.982Z,2.03
2022-07-27T12:35:24.598Z,2.17
2022-07-27T12:38:01.238Z,1.77
2022-07-27T12:40:30.547Z,1.50
2022-07-27T12:43:01.043Z,1.87
2022-07-27T12:45:34.597Z,2.00
2022-07-27T12:48:08.569Z,1.70
2022-07-27T12:50:37.138Z,1.60
2022-07-27T12:53:05.757Z,2.17
2022-07-27T12:55:34.242Z,1.70
2022-07-27T12:58:02.302Z,2.10
2022-07-27T13:00:33.804Z,1.73
2022-07-27T13:03:03.180Z,1.67
2022-07-27T13:05:33.215Z,1.80
2022-07-27T13:08:02.005Z,1.90
2022-07-27T13:10:30.379Z,2.20
2022-07-27T13:12:59.161Z,2.00
2022-07-27T13:15:27.658Z,2.07
2022-07-27T13:17:55.906Z,1.93
2022-07-27T13:20:24.496Z,2.00
2022-07-27T13:22:54.457Z,2.00
2022-07-27T13:25:22.742Z,2.03
2022-07-27T13:27:51.291Z,1.87
2022-07-27T13:30:19.756Z,2.10
2022-07-27T13:32:48.196Z,2.03
2022-07-27T13:35:17.890Z,1.73
2022-07-27T13:37:46.548Z,2.20
2022-07-27T13:40:15.965Z,2.03
2022-07-27T13:42:43.893Z,1.60
2022-07-27T13:45:12.428Z,1.83
2022-07-27T13:47:41.175Z,2.00
2022-07-27T13:50:17.412Z,1.73
2022-07-27T13:52:46.877Z,1.73
2022-07-27T13:55:17.598Z,2.10
2022-07-27T13:57:46.586Z,1.70
2022-07-27T14:00:15.643Z,1.90
2022-07-27T14:02:44.175Z,1.70
2022-07-27T14:05:14.246Z,1.80
2022-07-27T14:07:43.517Z,2.33
2022-07-27T14:10:30.645Z,2.00
2022-07-27T14:13:07.482Z,2.00
2022-07-27T14:15:54.473Z,2.10
2022-07-27T14:18:25.434Z,2.00
2022-07-27T14:20:53.598Z,1.90
2022-07-27T14:23:21.518Z,1.67
2022-07-27T14:25:49.770Z,1.60
2022-07-27T14:28:19.906Z,1.80
2022-07-27T14:30:48.710Z,1.67
2022-07-27T14:33:17.597Z,1.67
2022-07-27T14:35:46.016Z,1.70
2022-07-27T14:38:14.332Z,1.57
2022-07-27T14:40:53.531Z,1.90
2022-07-27T14:43:23.346Z,1.83
2022-07-27T14:45:51.297Z,1.57
2022-07-27T14:48:32.454Z,1.50
2022-07-27T14:51:09.401Z,1.80
2022-07-27T14:53:37.444Z,1.60
2022-07-27T14:56:06.116Z,1.63
2022-07-27T14:58:35.502Z,1.63
2022-07-27T15:01:03.513Z,1.60
2022-07-27T15:03:31.546Z,1.40
2022-07-27T15:05:59.479Z,1.67
2022-07-27T15:08:27.695Z,1.63
2022-07-27T15:10:57.284Z,1.37
2022-07-27T15:13:25.901Z,1.53
2022-07-27T15:15:57.246Z,1.50
2022-07-27T15:18:25.278Z,1.60
2022-07-27T15:20:53.181Z,1.77
2022-07-27T15:23:22.275Z,1.10
2022-07-27T15:25:50.329Z,1.60
2022-07-27T15:28:18.254Z,1.37
2022-07-27T15:30:46.328Z,1.47
2022-07-27T15:33:15.704Z,1.60
2022-07-27T15:35:43.698Z,1.53
2022-07-27T15:38:11.627Z,1.53
2022-07-27T15:40:41.548Z,1.83
2022-07-27T15:43:12.281Z,1.70
2022-07-27T15:45:41.332Z,1.40
2022-07-27T15:48:11.727Z,1.40
2022-07-27T15:50:43.213Z,1.40
2022-07-27T15:53:12.255Z,1.37
2022-07-27T15:55:40.227Z,1.80
2022-07-27T15:58:08.677Z,1.80
2022-07-27T16:00:41.112Z,1.27
2022-07-27T16:03:10.093Z,1.53
2022-07-27T16:05:40.127Z,1.47
2022-07-27T16:08:09.912Z,1.60
2022-07-27T16:10:38.749Z,1.50
2022-07-27T16:13:07.654Z,1.60
2022-07-27T16:15:53.851Z,1.30
2022-07-27T16:18:22.273Z,1.30
2022-07-27T16:20:52.133Z,1.50
2022-07-27T16:23:21.615Z,1.37
2022-07-27T16:26:04.091Z,1.60
2022-07-27T16:28:34.605Z,1.40
2022-07-27T16:31:03.382Z,1.10
2022-07-27T16:33:31.553Z,1.20
2022-07-27T16:36:00.931Z,1.50
2022-07-27T16:38:29.203Z,1.57
2022-07-27T16:40:57.143Z,1.43
2022-07-27T16:43:37.591Z,1.20
2022-07-27T16:46:07.698Z,1.27
2022-07-27T16:48:41.908Z,1.33
2022-07-27T16:51:13.364Z,1.43
2022-07-27T16:53:43.296Z,1.13
2022-07-27T16:56:11.962Z,1.50
2022-07-27T16:58:40.061Z,1.40
2022-07-27T17:01:08.761Z,1.90
2022-07-27T17:03:37.594Z,1.30
2022-07-27T17:06:07.200Z,1.53
2022-07-27T17:08:36.828Z,1.27
2022-07-27T17:11:06.432Z,1.50
2022-07-27T17:13:35.868Z,1.40
2022-07-27T17:16:04.892Z,1.30
2022-07-27T17:18:39.522Z,1.10
2022-07-27T17:21:09.534Z,1.30
2022-07-27T17:23:39.744Z,1.23
2022-07-27T17:26:09.459Z,1.30
2022-07-27T17:28:39.550Z,1.17
2022-07-27T17:31:10.277Z,1.13
2022-07-27T17:33:39.010Z,1.10
2022-07-27T17:36:14.005Z,1.47
2022-07-27T17:38:44.539Z,1.20
2022-07-27T17:41:12.759Z,1.57
2022-07-27T17:43:41.169Z,1.80
2022-07-27T17:46:10.721Z,1.73
2022-07-27T17:48:39.531Z,1.37
2022-07-27T17:51:10.425Z,1.30
2022-07-27T17:53:39.071Z,1.33
2022-07-27T17:56:08.610Z,1.43
2022-07-27T17:58:36.627Z,1.20
2022-07-27T18:01:05.197Z,1.70
2022-07-27T18:03:33.270Z,1.30
2022-07-27T18:06:01.525Z,1.53
2022-07-27T18:08:29.680Z,1.23
2022-07-27T18:10:57.807Z,1.23
2022-07-27T18:13:39.504Z,1.60
2022-07-27T18:16:09.295Z,1.30
2022-07-27T18:18:37.918Z,1.37
2022-07-27T18:21:06.462Z,1.10
2022-07-27T18:23:34.463Z,1.60
2022-07-27T18:26:02.561Z,1.20
2022-07-27T18:28:39.006Z,1.20
2022-07-27T18:31:08.548Z,1.40
2022-07-27T18:33:37.011Z,1.70
2022-07-27T18:36:06.371Z,1.20
2022-07-27T18:38:34.451Z,1.40
2022-07-27T18:41:03.004Z,1.23
2022-07-27T18:43:32.372Z,1.43
2022-07-27T18:46:00.426Z,1.30
2022-07-27T18:48:28.808Z,1.40
2022-07-27T18:50:57.333Z,1.30
2022-07-27T18:53:25.427Z,1.20
2022-07-27T18:55:56.557Z,1.47
2022-07-27T18:58:25.795Z,1.47
2022-07-27T19:00:55.665Z,1.57
2022-07-27T19:03:24.534Z,1.60
2022-07-27T19:05:54.339Z,1.30
2022-07-27T19:08:22.646Z,1.50
2022-07-27T19:10:51.185Z,1.23
2022-07-27T19:13:19.187Z,1.50
2022-07-27T19:15:47.122Z,1.23
2022-07-27T19:18:16.438Z,1.33
2022-07-27T19:20:44.295Z,1.30
2022-07-27T19:23:12.308Z,1.30
2022-07-27T19:25:40.445Z,1.70
2022-07-27T19:28:08.387Z,1.20
2022-07-27T19:30:38.658Z,1.40
2022-07-27T19:33:07.024Z,1.30
2022-07-27T19:35:36.316Z,1.40
2022-07-27T19:38:04.864Z,1.50
2022-07-27T19:40:44.006Z,1.20
2022-07-27T19:43:13.128Z,1.40
2022-07-27T19:45:41.469Z,1.40
2022-07-27T19:48:09.529Z,1.57
2022-07-27T19:50:39.317Z,1.40
2022-07-27T19:53:07.214Z,1.40
2022-07-27T19:55:35.280Z,1.63
2022-07-27T19:58:03.217Z,1.40
2022-07-27T20:00:31.311Z,1.50
2022-07-27T20:02:59.299Z,1.20
2022-07-27T20:05:27.411Z,1.40
2022-07-27T20:07:56.679Z,1.60
2022-07-27T20:10:25.316Z,1.87
2022-07-27T20:12:53.677Z,1.47
2022-07-27T20:15:22.522Z,1.47
2022-07-27T20:17:50.830Z,1.67
2022-07-27T20:20:18.969Z,1.57
2022-07-27T20:22:46.920Z,1.43
2022-07-27T20:25:17.889Z,1.10
2022-07-27T20:27:46.064Z,1.50
2022-07-27T20:30:16.262Z,1.60
2022-07-27T20:32:44.627Z,1.70
2022-07-27T20:35:12.985Z,1.20
2022-07-27T20:37:41.124Z,1.50
2022-07-27T20:40:11.481Z,1.40
2022-07-27T20:42:41.488Z,1.47
2022-07-27T20:45:11.337Z,1.47
2022-07-27T20:47:39.532Z,1.53
2022-07-27T20:50:09.241Z,1.50
2022-07-27T20:52:37.470Z,1.47
2022-07-27T20:55:06.515Z,1.50
2022-07-27T20:57:34.397Z,1.70
2022-07-27T21:00:04.766Z,1.20
2022-07-27T21:02:32.987Z,1.40
2022-07-27T21:05:01.064Z,1.10
2022-07-27T21:07:29.045Z,1.57
2022-07-27T21:09:56.989Z,1.30
2022-07-27T21:12:24.885Z,1.50
2022-07-27T21:14:52.820Z,1.23
2022-07-27T21:17:22.093Z,1.30
2022-07-27T21:19:49.936Z,1.70
2022-07-27T21:22:18.300Z,1.70
2022-07-27T21:24:45.356Z,1.60
2022-07-27T21:27:15.429Z,1.40
2022-07-27T21:29:47.631Z,1.50
2022-07-27T21:32:15.495Z,1.67
2022-07-27T21:34:45.059Z,1.07
2022-07-27T21:37:13.099Z,1.60
2022-07-27T21:39:41.029Z,1.70
2022-07-27T21:42:08.942Z,1.20
2022-07-27T21:44:37.422Z,1.50
2022-07-27T21:47:10.107Z,1.30
2022-07-27T21:49:41.606Z,1.30
2022-07-27T21:52:11.298Z,1.30
2022-07-27T21:54:39.946Z,1.60
2022-07-27T21:57:08.017Z,1.50
2022-07-27T21:59:36.014Z,1.40
2022-07-27T22:02:04.101Z,1.57
2022-07-27T22:04:32.056Z,1.70
2022-07-27T22:07:00.035Z,1.40
2022-07-27T22:09:29.344Z,1.43
2022-07-27T22:11:57.435Z,1.23
2022-07-27T22:14:25.409Z,1.50
2022-07-27T22:16:53.987Z,1.73
2022-07-27T22:19:22.015Z,1.37
2022-07-27T22:21:50.133Z,1.30
2022-07-27T22:24:18.449Z,1.77
2022-07-27T22:26:49.111Z,1.50
2022-07-27T22:29:17.221Z,1.20
2022-07-27T22:31:45.320Z,1.30
2022-07-27T22:34:13.488Z,1.40
2022-07-27T22:36:41.639Z,1.70
2022-07-27T22:39:09.529Z,1.90
2022-07-27T22:41:37.449Z,1.60
2022-07-27T22:44:06.734Z,1.60
2022-07-27T22:46:34.777Z,1.60
2022-07-27T22:49:02.781Z,1.63
2022-07-27T22:51:48.896Z,1.10
2022-07-27T22:54:18.760Z,1.60
2022-07-27T22:56:47.471Z,1.50
2022-07-27T22:59:16.706Z,1.23
2022-07-27T23:01:47.266Z,1.53
2022-07-27T23:04:17.157Z,1.40
2022-07-27T23:06:45.682Z,1.40
2022-07-27T23:09:13.747Z,1.87
2022-07-27T23:11:42.143Z,1.80
2022-07-27T23:14:10.151Z,1.40
2022-07-27T23:16:39.615Z,1.63
2022-07-27T23:19:07.555Z,1.40
2022-07-27T23:21:35.455Z,1.30
2022-07-27T23:24:05.555Z,1.33
2022-07-27T23:26:33.612Z,1.40
2022-07-27T23:29:02.111Z,1.23
2022-07-27T23:31:30.158Z,1.30
2022-07-27T23:33:59.454Z,1.60
2022-07-27T23:36:27.647Z,1.30
2022-07-27T23:38:55.693Z,1.63
2022-07-27T23:41:23.706Z,1.43
2022-07-27T23:44:03.736Z,1.60
2022-07-27T23:46:31.882Z,1.40
2022-07-27T23:49:01.288Z,1.50
2022-07-27T23:51:29.422Z,1.40
2022-07-27T23:53:57.414Z,1.40
2022-07-27T23:56:25.762Z,2.00
2022-07-27T23:58:53.703Z,1.37
